sensor_id;sensor_type;location;lat;lon;timestamp;P1;durP1;ratioP1;P2;durP2;ratioP2
2868;SDS011;1442;47.448;8.582;2024-03-02T00:00:14;23.63;;;13.77;;
2868;SDS011;1442;47.448;8.582;2024-03-02T00:02:41;23.65;;;13.43;;
2868;SDS011;1442;47.448;8.582;2024-03-02T00:05:11;23.90;;;13.27;;
2868;SDS011;1442;47.448;8.582;2024-03-02T00:07:41;22.70;;;13.32;;
2868;SDS011;1442;47.448;8.582;2024-03-02T00:10:09;23.10;;;13.43;;
2868;SDS011;1442;47.448;8.582;2024-03-02T00:12:37;20.30;;;13.20;;
2868;SDS011;1442;47.448;8.582;2024-03-02T00:15:05;19.38;;;11.60;;
2868;SDS011;1442;47.448;8.582;2024-03-02T00:17:52;23.10;;;13.05;;
2868;SDS011;1442;47.448;8.582;2024-03-02T00:20:21;19.60;;;12.40;;
2868;SDS011;1442;47.448;8.582;2024-03-02T00:22:49;24.00;;;13.70;;
2868;SDS011;1442;47.448;8.582;2024-03-02T00:25:16;23.70;;;13.98;;
2868;SDS011;1442;47.448;8.582;2024-03-02T00:27:46;21.88;;;13.32;;
2868;SDS011;1442;47.448;8.582;2024-03-02T00:30:26;25.75;;;13.73;;
2868;SDS011;1442;47.448;8.582;2024-03-02T00:33:11;24.45;;;12.63;;
2868;SDS011;1442;47.448;8.582;2024-03-02T00:35:40;27.92;;;13.60;;
2868;SDS011;1442;47.448;8.582;2024-03-02T00:38:10;22.97;;;12.33;;
2868;SDS011;1442;47.448;8.582;2024-03-02T00:40:37;25.80;;;13.75;;
2868;SDS011;1442;47.448;8.582;2024-03-02T00:43:03;19.52;;;12.77;;
2868;SDS011;1442;47.448;8.582;2024-03-02T00:45:30;22.48;;;13.63;;
2868;SDS011;1442;47.448;8.582;2024-03-02T00:47:58;19.55;;;12.70;;
2868;SDS011;1442;47.448;8.582;2024-03-02T00:50:25;22.85;;;12.82;;
2868;SDS011;1442;47.448;8.582;2024-03-02T00:52:53;25.85;;;14.52;;
2868;SDS011;1442;47.448;8.582;2024-03-02T00:55:20;23.60;;;14.13;;
2868;SDS011;1442;47.448;8.582;2024-03-02T00:57:46;23.48;;;13.90;;
2868;SDS011;1442;47.448;8.582;2024-03-02T01:00:14;25.30;;;13.80;;
2868;SDS011;1442;47.448;8.582;2024-03-02T01:02:43;22.42;;;14.32;;
2868;SDS011;1442;47.448;8.582;2024-03-02T01:05:11;19.48;;;12.10;;
2868;SDS011;1442;47.448;8.582;2024-03-02T01:07:38;23.50;;;13.68;;
2868;SDS011;1442;47.448;8.582;2024-03-02T01:10:06;22.38;;;12.63;;
2868;SDS011;1442;47.448;8.582;2024-03-02T01:12:35;19.38;;;11.45;;
2868;SDS011;1442;47.448;8.582;2024-03-02T01:15:02;22.50;;;12.90;;
2868;SDS011;1442;47.448;8.582;2024-03-02T01:17:33;20.50;;;12.40;;
2868;SDS011;1442;47.448;8.582;2024-03-02T01:19:59;18.85;;;11.35;;
2868;SDS011;1442;47.448;8.582;2024-03-02T01:22:26;18.90;;;12.05;;
2868;SDS011;1442;47.448;8.582;2024-03-02T01:24:53;20.42;;;11.70;;
2868;SDS011;1442;47.448;8.582;2024-03-02T01:27:21;20.48;;;12.68;;
2868;SDS011;1442;47.448;8.582;2024-03-02T01:29:48;17.00;;;10.40;;
2868;SDS011;1442;47.448;8.582;2024-03-02T01:32:15;17.23;;;10.80;;
2868;SDS011;1442;47.448;8.582;2024-03-02T01:34:42;18.83;;;11.63;;
2868;SDS011;1442;47.448;8.582;2024-03-02T01:37:09;19.42;;;11.45;;
2868;SDS011;1442;47.448;8.582;2024-03-02T01:39:36;17.90;;;11.15;;
2868;SDS011;1442;47.448;8.582;2024-03-02T01:42:02;19.70;;;11.00;;
2868;SDS011;1442;47.448;8.582;2024-03-02T01:44:31;17.77;;;11.40;;
2868;SDS011;1442;47.448;8.582;2024-03-02T01:46:57;23.40;;;11.13;;
2868;SDS011;1442;47.448;8.582;2024-03-02T01:49:25;23.30;;;12.32;;
2868;SDS011;1442;47.448;8.582;2024-03-02T01:51:51;20.10;;;11.45;;
2868;SDS011;1442;47.448;8.582;2024-03-02T01:54:18;19.17;;;11.70;;
2868;SDS011;1442;47.448;8.582;2024-03-02T01:56:45;18.08;;;10.82;;
2868;SDS011;1442;47.448;8.582;2024-03-02T01:59:12;20.42;;;11.70;;
2868;SDS011;1442;47.448;8.582;2024-03-02T02:01:40;19.05;;;11.70;;
2868;SDS011;1442;47.448;8.582;2024-03-02T02:04:07;17.60;;;11.52;;
2868;SDS011;1442;47.448;8.582;2024-03-02T02:06:34;19.55;;;11.32;;
2868;SDS011;1442;47.448;8.582;2024-03-02T02:09:01;21.00;;;12.57;;
2868;SDS011;1442;47.448;8.582;2024-03-02T02:11:27;18.15;;;11.18;;
2868;SDS011;1442;47.448;8.582;2024-03-02T02:13:54;19.75;;;11.30;;
2868;SDS011;1442;47.448;8.582;2024-03-02T02:16:21;21.13;;;12.40;;
2868;SDS011;1442;47.448;8.582;2024-03-02T02:18:49;21.85;;;12.07;;
2868;SDS011;1442;47.448;8.582;2024-03-02T02:21:16;19.50;;;11.35;;
2868;SDS011;1442;47.448;8.582;2024-03-02T02:23:44;21.02;;;12.45;;
2868;SDS011;1442;47.448;8.582;2024-03-02T02:26:13;21.85;;;10.93;;
2868;SDS011;1442;47.448;8.582;2024-03-02T02:28:40;20.10;;;12.27;;
2868;SDS011;1442;47.448;8.582;2024-03-02T02:31:11;18.13;;;10.93;;
2868;SDS011;1442;47.448;8.582;2024-03-02T02:33:38;18.35;;;10.48;;
2868;SDS011;1442;47.448;8.582;2024-03-02T02:36:06;20.38;;;11.15;;
2868;SDS011;1442;47.448;8.582;2024-03-02T02:38:33;19.90;;;10.95;;
2868;SDS011;1442;47.448;8.582;2024-03-02T02:41:05;19.00;;;10.77;;
2868;SDS011;1442;47.448;8.582;2024-03-02T02:43:32;24.02;;;11.80;;
2868;SDS011;1442;47.448;8.582;2024-03-02T02:45:59;22.30;;;12.82;;
2868;SDS011;1442;47.448;8.582;2024-03-02T02:48:26;18.58;;;11.98;;
2868;SDS011;1442;47.448;8.582;2024-03-02T02:50:52;22.30;;;13.27;;
2868;SDS011;1442;47.448;8.582;2024-03-02T02:53:19;24.65;;;13.90;;
2868;SDS011;1442;47.448;8.582;2024-03-02T02:55:46;21.88;;;13.40;;
2868;SDS011;1442;47.448;8.582;2024-03-02T02:58:14;19.10;;;12.18;;
2868;SDS011;1442;47.448;8.582;2024-03-02T03:00:41;20.73;;;12.65;;
2868;SDS011;1442;47.448;8.582;2024-03-02T03:03:08;22.90;;;13.50;;
2868;SDS011;1442;47.448;8.582;2024-03-02T03:05:34;22.85;;;12.70;;
2868;SDS011;1442;47.448;8.582;2024-03-02T03:08:01;20.60;;;12.20;;
2868;SDS011;1442;47.448;8.582;2024-03-02T03:10:28;26.45;;;12.07;;
2868;SDS011;1442;47.448;8.582;2024-03-02T03:12:55;20.25;;;11.95;;
2868;SDS011;1442;47.448;8.582;2024-03-02T03:15:23;18.75;;;11.80;;
2868;SDS011;1442;47.448;8.582;2024-03-02T03:17:50;20.67;;;11.52;;
2868;SDS011;1442;47.448;8.582;2024-03-02T03:20:17;18.33;;;12.30;;
2868;SDS011;1442;47.448;8.582;2024-03-02T03:22:46;20.35;;;11.73;;
2868;SDS011;1442;47.448;8.582;2024-03-02T03:25:13;18.27;;;11.20;;
2868;SDS011;1442;47.448;8.582;2024-03-02T03:27:40;16.92;;;10.52;;
2868;SDS011;1442;47.448;8.582;2024-03-02T03:30:07;24.75;;;11.25;;
2868;SDS011;1442;47.448;8.582;2024-03-02T03:32:35;15.05;;;10.32;;
2868;SDS011;1442;47.448;8.582;2024-03-02T03:35:02;18.63;;;10.40;;
2868;SDS011;1442;47.448;8.582;2024-03-02T03:37:29;17.42;;;10.27;;
2868;SDS011;1442;47.448;8.582;2024-03-02T03:39:57;21.45;;;11.30;;
2868;SDS011;1442;47.448;8.582;2024-03-02T03:42:24;20.67;;;11.68;;
2868;SDS011;1442;47.448;8.582;2024-03-02T03:44:51;16.00;;;10.27;;
2868;SDS011;1442;47.448;8.582;2024-03-02T03:47:18;16.60;;;10.40;;
2868;SDS011;1442;47.448;8.582;2024-03-02T03:49:46;15.55;;;10.57;;
2868;SDS011;1442;47.448;8.582;2024-03-02T03:52:13;20.27;;;10.75;;
2868;SDS011;1442;47.448;8.582;2024-03-02T03:54:40;13.40;;;9.38;;
2868;SDS011;1442;47.448;8.582;2024-03-02T03:57:08;16.65;;;9.82;;
2868;SDS011;1442;47.448;8.582;2024-03-02T03:59:34;20.25;;;10.80;;
2868;SDS011;1442;47.448;8.582;2024-03-02T04:02:02;18.10;;;10.70;;
2868;SDS011;1442;47.448;8.582;2024-03-02T04:04:29;16.20;;;10.35;;
2868;SDS011;1442;47.448;8.582;2024-03-02T04:06:57;16.13;;;10.10;;
2868;SDS011;1442;47.448;8.582;2024-03-02T04:09:24;18.63;;;10.68;;
2868;SDS011;1442;47.448;8.582;2024-03-02T04:11:51;19.55;;;10.70;;
2868;SDS011;1442;47.448;8.582;2024-03-02T04:14:18;17.17;;;10.45;;
2868;SDS011;1442;47.448;8.582;2024-03-02T04:16:44;16.45;;;10.63;;
2868;SDS011;1442;47.448;8.582;2024-03-02T04:19:11;19.83;;;10.57;;
2868;SDS011;1442;47.448;8.582;2024-03-02T04:21:38;17.65;;;11.07;;
2868;SDS011;1442;47.448;8.582;2024-03-02T04:24:06;18.48;;;10.88;;
2868;SDS011;1442;47.448;8.582;2024-03-02T04:26:33;16.05;;;10.20;;
2868;SDS011;1442;47.448;8.582;2024-03-02T04:29:00;18.63;;;9.45;;
2868;SDS011;1442;47.448;8.582;2024-03-02T04:31:26;17.70;;;9.95;;
2868;SDS011;1442;47.448;8.582;2024-03-02T04:33:53;17.08;;;10.05;;
2868;SDS011;1442;47.448;8.582;2024-03-02T04:36:20;17.15;;;11.20;;
2868;SDS011;1442;47.448;8.582;2024-03-02T04:38:47;16.27;;;9.88;;
2868;SDS011;1442;47.448;8.582;2024-03-02T04:41:15;18.25;;;10.40;;
2868;SDS011;1442;47.448;8.582;2024-03-02T04:43:42;17.90;;;10.00;;
2868;SDS011;1442;47.448;8.582;2024-03-02T04:46:09;17.15;;;10.40;;
2868;SDS011;1442;47.448;8.582;2024-03-02T04:48:36;19.10;;;10.82;;
2868;SDS011;1442;47.448;8.582;2024-03-02T04:51:03;16.33;;;10.30;;
2868;SDS011;1442;47.448;8.582;2024-03-02T04:53:29;19.23;;;10.70;;
2868;SDS011;1442;47.448;8.582;2024-03-02T04:55:56;16.23;;;10.63;;
2868;SDS011;1442;47.448;8.582;2024-03-02T04:58:44;17.15;;;10.68;;
2868;SDS011;1442;47.448;8.582;2024-03-02T05:01:11;18.63;;;10.07;;
2868;SDS011;1442;47.448;8.582;2024-03-02T05:03:37;16.77;;;11.18;;
2868;SDS011;1442;47.448;8.582;2024-03-02T05:06:04;17.52;;;10.75;;
2868;SDS011;1442;47.448;8.582;2024-03-02T05:08:31;15.57;;;10.23;;
2868;SDS011;1442;47.448;8.582;2024-03-02T05:10:58;18.30;;;11.27;;
2868;SDS011;1442;47.448;8.582;2024-03-02T05:13:46;16.83;;;11.50;;
2868;SDS011;1442;47.448;8.582;2024-03-02T05:16:12;19.73;;;11.93;;
2868;SDS011;1442;47.448;8.582;2024-03-02T05:18:38;20.63;;;12.13;;
2868;SDS011;1442;47.448;8.582;2024-03-02T05:21:05;16.90;;;10.85;;
2868;SDS011;1442;47.448;8.582;2024-03-02T05:23:32;18.48;;;10.50;;
2868;SDS011;1442;47.448;8.582;2024-03-02T05:25:59;24.20;;;11.85;;
2868;SDS011;1442;47.448;8.582;2024-03-02T05:28:26;29.23;;;13.13;;
2868;SDS011;1442;47.448;8.582;2024-03-02T05:30:54;33.90;;;13.02;;
2868;SDS011;1442;47.448;8.582;2024-03-02T05:33:21;34.42;;;13.48;;
2868;SDS011;1442;47.448;8.582;2024-03-02T05:35:48;23.92;;;13.48;;
2868;SDS011;1442;47.448;8.582;2024-03-02T05:38:15;29.63;;;14.15;;
2868;SDS011;1442;47.448;8.582;2024-03-02T05:40:42;27.67;;;13.98;;
2868;SDS011;1442;47.448;8.582;2024-03-02T05:43:09;31.27;;;15.13;;
2868;SDS011;1442;47.448;8.582;2024-03-02T05:45:36;33.38;;;14.90;;
2868;SDS011;1442;47.448;8.582;2024-03-02T05:48:06;59.72;;;15.80;;
2868;SDS011;1442;47.448;8.582;2024-03-02T05:50:34;84.88;;;16.52;;
2868;SDS011;1442;47.448;8.582;2024-03-02T05:53:01;62.85;;;18.17;;
2868;SDS011;1442;47.448;8.582;2024-03-02T05:55:27;49.10;;;15.80;;
2868;SDS011;1442;47.448;8.582;2024-03-02T05:57:54;53.33;;;16.25;;
2868;SDS011;1442;47.448;8.582;2024-03-02T06:00:36;48.00;;;15.50;;
2868;SDS011;1442;47.448;8.582;2024-03-02T06:03:03;39.05;;;16.95;;
2868;SDS011;1442;47.448;8.582;2024-03-02T06:05:33;37.40;;;17.08;;
2868;SDS011;1442;47.448;8.582;2024-03-02T06:07:59;47.53;;;16.92;;
2868;SDS011;1442;47.448;8.582;2024-03-02T06:10:26;41.88;;;17.83;;
2868;SDS011;1442;47.448;8.582;2024-03-02T06:12:53;42.40;;;18.67;;
2868;SDS011;1442;47.448;8.582;2024-03-02T06:15:19;41.75;;;17.02;;
2868;SDS011;1442;47.448;8.582;2024-03-02T06:17:46;55.83;;;17.70;;
2868;SDS011;1442;47.448;8.582;2024-03-02T06:20:14;41.90;;;17.17;;
2868;SDS011;1442;47.448;8.582;2024-03-02T06:22:41;40.42;;;18.02;;
2868;SDS011;1442;47.448;8.582;2024-03-02T06:25:08;46.10;;;17.67;;
2868;SDS011;1442;47.448;8.582;2024-03-02T06:27:34;51.10;;;21.17;;
2868;SDS011;1442;47.448;8.582;2024-03-02T06:30:01;49.20;;;19.15;;
2868;SDS011;1442;47.448;8.582;2024-03-02T06:32:29;47.88;;;22.67;;
2868;SDS011;1442;47.448;8.582;2024-03-02T06:34:56;57.95;;;21.85;;
2868;SDS011;1442;47.448;8.582;2024-03-02T06:37:24;42.83;;;19.08;;
2868;SDS011;1442;47.448;8.582;2024-03-02T06:39:51;41.85;;;16.65;;
2868;SDS011;1442;47.448;8.582;2024-03-02T06:42:17;39.30;;;15.90;;
2868;SDS011;1442;47.448;8.582;2024-03-02T06:44:44;45.30;;;17.65;;
2868;SDS011;1442;47.448;8.582;2024-03-02T06:47:11;44.50;;;17.10;;
2868;SDS011;1442;47.448;8.582;2024-03-02T06:49:38;47.67;;;18.77;;
2868;SDS011;1442;47.448;8.582;2024-03-02T06:52:05;38.35;;;16.45;;
2868;SDS011;1442;47.448;8.582;2024-03-02T06:54:33;40.45;;;16.75;;
2868;SDS011;1442;47.448;8.582;2024-03-02T06:57:00;38.63;;;16.08;;
2868;SDS011;1442;47.448;8.582;2024-03-02T06:59:27;39.80;;;17.05;;
2868;SDS011;1442;47.448;8.582;2024-03-02T07:01:54;33.88;;;16.95;;
2868;SDS011;1442;47.448;8.582;2024-03-02T07:04:21;32.45;;;15.57;;
2868;SDS011;1442;47.448;8.582;2024-03-02T07:06:48;40.28;;;16.50;;
2868;SDS011;1442;47.448;8.582;2024-03-02T07:09:16;43.50;;;15.82;;
2868;SDS011;1442;47.448;8.582;2024-03-02T07:11:44;44.33;;;17.40;;
2868;SDS011;1442;47.448;8.582;2024-03-02T07:14:11;32.97;;;16.08;;
2868;SDS011;1442;47.448;8.582;2024-03-02T07:16:38;49.35;;;16.05;;
2868;SDS011;1442;47.448;8.582;2024-03-02T07:19:05;42.75;;;15.40;;
2868;SDS011;1442;47.448;8.582;2024-03-02T07:21:32;37.20;;;16.58;;
2868;SDS011;1442;47.448;8.582;2024-03-02T07:23:59;31.60;;;15.38;;
2868;SDS011;1442;47.448;8.582;2024-03-02T07:26:27;34.85;;;15.27;;
2868;SDS011;1442;47.448;8.582;2024-03-02T07:28:56;26.92;;;14.32;;
2868;SDS011;1442;47.448;8.582;2024-03-02T07:31:23;32.28;;;14.63;;
2868;SDS011;1442;47.448;8.582;2024-03-02T07:33:50;32.83;;;15.93;;
2868;SDS011;1442;47.448;8.582;2024-03-02T07:36:17;36.38;;;17.25;;
2868;SDS011;1442;47.448;8.582;2024-03-02T07:38:44;39.83;;;18.00;;
2868;SDS011;1442;47.448;8.582;2024-03-02T07:41:11;29.77;;;16.20;;
2868;SDS011;1442;47.448;8.582;2024-03-02T07:43:38;33.40;;;15.88;;
2868;SDS011;1442;47.448;8.582;2024-03-02T07:46:06;36.17;;;16.05;;
2868;SDS011;1442;47.448;8.582;2024-03-02T07:48:33;29.48;;;15.07;;
2868;SDS011;1442;47.448;8.582;2024-03-02T07:51:00;36.22;;;14.40;;
2868;SDS011;1442;47.448;8.582;2024-03-02T07:53:27;38.45;;;16.20;;
2868;SDS011;1442;47.448;8.582;2024-03-02T07:55:54;41.35;;;17.45;;
2868;SDS011;1442;47.448;8.582;2024-03-02T07:58:22;40.53;;;16.67;;
2868;SDS011;1442;47.448;8.582;2024-03-02T08:00:49;30.90;;;14.00;;
2868;SDS011;1442;47.448;8.582;2024-03-02T08:03:17;31.48;;;15.23;;
2868;SDS011;1442;47.448;8.582;2024-03-02T08:05:44;28.88;;;12.75;;
2868;SDS011;1442;47.448;8.582;2024-03-02T08:08:11;22.33;;;11.50;;
2868;SDS011;1442;47.448;8.582;2024-03-02T08:10:37;20.40;;;11.05;;
2868;SDS011;1442;47.448;8.582;2024-03-02T08:13:04;18.77;;;10.82;;
2868;SDS011;1442;47.448;8.582;2024-03-02T08:15:31;26.52;;;11.02;;
2868;SDS011;1442;47.448;8.582;2024-03-02T08:17:58;26.35;;;12.20;;
2868;SDS011;1442;47.448;8.582;2024-03-02T08:20:26;26.83;;;12.23;;
2868;SDS011;1442;47.448;8.582;2024-03-02T08:22:53;29.90;;;13.07;;
2868;SDS011;1442;47.448;8.582;2024-03-02T08:25:20;27.88;;;14.70;;
2868;SDS011;1442;47.448;8.582;2024-03-02T08:27:47;33.50;;;14.50;;
2868;SDS011;1442;47.448;8.582;2024-03-02T08:30:14;21.48;;;12.30;;
2868;SDS011;1442;47.448;8.582;2024-03-02T08:32:41;22.33;;;12.25;;
2868;SDS011;1442;47.448;8.582;2024-03-02T08:35:07;18.75;;;10.82;;
2868;SDS011;1442;47.448;8.582;2024-03-02T08:37:36;18.08;;;9.80;;
2868;SDS011;1442;47.448;8.582;2024-03-02T08:40:06;25.38;;;11.38;;
2868;SDS011;1442;47.448;8.582;2024-03-02T08:42:33;20.08;;;11.35;;
2868;SDS011;1442;47.448;8.582;2024-03-02T08:45:00;16.67;;;8.75;;
2868;SDS011;1442;47.448;8.582;2024-03-02T08:47:27;12.48;;;8.85;;
2868;SDS011;1442;47.448;8.582;2024-03-02T08:49:54;15.48;;;9.70;;
2868;SDS011;1442;47.448;8.582;2024-03-02T08:52:20;13.50;;;8.80;;
2868;SDS011;1442;47.448;8.582;2024-03-02T08:54:49;13.07;;;8.98;;
2868;SDS011;1442;47.448;8.582;2024-03-02T08:57:15;13.88;;;9.18;;
2868;SDS011;1442;47.448;8.582;2024-03-02T08:59:42;20.10;;;11.52;;
2868;SDS011;1442;47.448;8.582;2024-03-02T09:02:09;23.88;;;13.00;;
2868;SDS011;1442;47.448;8.582;2024-03-02T09:04:36;20.67;;;12.60;;
2868;SDS011;1442;47.448;8.582;2024-03-02T09:07:03;23.48;;;11.60;;
2868;SDS011;1442;47.448;8.582;2024-03-02T09:09:30;18.48;;;11.57;;
2868;SDS011;1442;47.448;8.582;2024-03-02T09:11:59;21.02;;;11.93;;
2868;SDS011;1442;47.448;8.582;2024-03-02T09:14:25;22.95;;;12.35;;
2868;SDS011;1442;47.448;8.582;2024-03-02T09:16:52;22.65;;;10.77;;
2868;SDS011;1442;47.448;8.582;2024-03-02T09:19:19;20.13;;;11.38;;
2868;SDS011;1442;47.448;8.582;2024-03-02T09:21:46;21.65;;;11.95;;
2868;SDS011;1442;47.448;8.582;2024-03-02T09:24:12;18.73;;;10.35;;
2868;SDS011;1442;47.448;8.582;2024-03-02T09:26:39;18.27;;;9.50;;
2868;SDS011;1442;47.448;8.582;2024-03-02T09:29:07;19.98;;;10.73;;
2868;SDS011;1442;47.448;8.582;2024-03-02T09:31:38;20.88;;;11.20;;
2868;SDS011;1442;47.448;8.582;2024-03-02T09:34:05;13.05;;;7.82;;
2868;SDS011;1442;47.448;8.582;2024-03-02T09:36:32;15.75;;;8.20;;
2868;SDS011;1442;47.448;8.582;2024-03-02T09:38:59;11.98;;;7.72;;
2868;SDS011;1442;47.448;8.582;2024-03-02T09:41:26;14.15;;;8.23;;
2868;SDS011;1442;47.448;8.582;2024-03-02T09:43:54;13.75;;;7.88;;
2868;SDS011;1442;47.448;8.582;2024-03-02T09:46:22;7.90;;;5.55;;
2868;SDS011;1442;47.448;8.582;2024-03-02T09:48:49;5.50;;;4.55;;
2868;SDS011;1442;47.448;8.582;2024-03-02T09:51:16;4.68;;;4.00;;
2868;SDS011;1442;47.448;8.582;2024-03-02T09:53:44;5.47;;;4.47;;
2868;SDS011;1442;47.448;8.582;2024-03-02T09:56:12;6.65;;;5.28;;
2868;SDS011;1442;47.448;8.582;2024-03-02T09:58:40;8.40;;;5.15;;
2868;SDS011;1442;47.448;8.582;2024-03-02T10:01:08;5.97;;;4.88;;
2868;SDS011;1442;47.448;8.582;2024-03-02T10:03:37;6.05;;;4.18;;
2868;SDS011;1442;47.448;8.582;2024-03-02T10:06:20;5.95;;;4.97;;
2868;SDS011;1442;47.448;8.582;2024-03-02T10:08:47;6.88;;;4.60;;
2868;SDS011;1442;47.448;8.582;2024-03-02T10:11:25;6.00;;;4.60;;
2868;SDS011;1442;47.448;8.582;2024-03-02T10:14:03;6.20;;;4.97;;
2868;SDS011;1442;47.448;8.582;2024-03-02T10:16:33;6.30;;;4.18;;
2868;SDS011;1442;47.448;8.582;2024-03-02T10:19:11;5.70;;;4.60;;
2868;SDS011;1442;47.448;8.582;2024-03-02T10:21:44;6.35;;;4.93;;
2868;SDS011;1442;47.448;8.582;2024-03-02T10:24:11;7.55;;;5.32;;
2868;SDS011;1442;47.448;8.582;2024-03-02T10:26:38;7.10;;;5.53;;
2868;SDS011;1442;47.448;8.582;2024-03-02T10:29:06;7.47;;;5.03;;
2868;SDS011;1442;47.448;8.582;2024-03-02T10:31:35;7.07;;;5.03;;
2868;SDS011;1442;47.448;8.582;2024-03-02T10:34:03;7.18;;;5.70;;
2868;SDS011;1442;47.448;8.582;2024-03-02T10:36:31;7.78;;;5.50;;
2868;SDS011;1442;47.448;8.582;2024-03-02T10:38:58;7.43;;;5.18;;
2868;SDS011;1442;47.448;8.582;2024-03-02T10:41:26;7.03;;;5.95;;
2868;SDS011;1442;47.448;8.582;2024-03-02T10:43:53;6.60;;;4.88;;
2868;SDS011;1442;47.448;8.582;2024-03-02T10:46:24;10.05;;;5.43;;
2868;SDS011;1442;47.448;8.582;2024-03-02T10:48:54;8.07;;;5.28;;
2868;SDS011;1442;47.448;8.582;2024-03-02T10:51:21;8.60;;;6.18;;
2868;SDS011;1442;47.448;8.582;2024-03-02T10:53:49;9.27;;;6.32;;
2868;SDS011;1442;47.448;8.582;2024-03-02T10:56:16;10.02;;;6.38;;
2868;SDS011;1442;47.448;8.582;2024-03-02T10:58:54;13.35;;;6.15;;
2868;SDS011;1442;47.448;8.582;2024-03-02T11:01:28;8.38;;;6.50;;
2868;SDS011;1442;47.448;8.582;2024-03-02T11:03:56;11.02;;;6.57;;
2868;SDS011;1442;47.448;8.582;2024-03-02T11:06:24;10.32;;;6.72;;
2868;SDS011;1442;47.448;8.582;2024-03-02T11:08:55;11.48;;;7.30;;
2868;SDS011;1442;47.448;8.582;2024-03-02T11:11:26;9.68;;;6.75;;
2868;SDS011;1442;47.448;8.582;2024-03-02T11:13:56;10.70;;;7.30;;
2868;SDS011;1442;47.448;8.582;2024-03-02T11:16:33;11.95;;;8.27;;
2868;SDS011;1442;47.448;8.582;2024-03-02T11:19:00;8.20;;;6.88;;
2868;SDS011;1442;47.448;8.582;2024-03-02T11:21:29;10.40;;;7.72;;
2868;SDS011;1442;47.448;8.582;2024-03-02T11:24:00;9.98;;;6.68;;
2868;SDS011;1442;47.448;8.582;2024-03-02T11:26:47;10.07;;;6.40;;
2868;SDS011;1442;47.448;8.582;2024-03-02T11:29:25;9.35;;;6.55;;
2868;SDS011;1442;47.448;8.582;2024-03-02T11:32:13;11.30;;;7.15;;
2868;SDS011;1442;47.448;8.582;2024-03-02T11:34:41;7.40;;;5.22;;
2868;SDS011;1442;47.448;8.582;2024-03-02T11:37:10;7.18;;;4.97;;
2868;SDS011;1442;47.448;8.582;2024-03-02T11:39:38;9.27;;;6.28;;
2868;SDS011;1442;47.448;8.582;2024-03-02T11:42:06;8.32;;;6.30;;
2868;SDS011;1442;47.448;8.582;2024-03-02T11:44:34;8.30;;;5.75;;
2868;SDS011;1442;47.448;8.582;2024-03-02T11:47:02;6.68;;;5.43;;
2868;SDS011;1442;47.448;8.582;2024-03-02T11:49:38;5.72;;;4.78;;
2868;SDS011;1442;47.448;8.582;2024-03-02T11:52:06;7.13;;;4.60;;
2868;SDS011;1442;47.448;8.582;2024-03-02T11:54:34;8.13;;;5.03;;
2868;SDS011;1442;47.448;8.582;2024-03-02T11:57:06;7.43;;;4.95;;
2868;SDS011;1442;47.448;8.582;2024-03-02T11:59:33;7.25;;;5.05;;
2868;SDS011;1442;47.448;8.582;2024-03-02T12:02:00;9.63;;;6.55;;
2868;SDS011;1442;47.448;8.582;2024-03-02T12:04:27;7.30;;;4.88;;
2868;SDS011;1442;47.448;8.582;2024-03-02T12:06:56;5.68;;;4.50;;
2868;SDS011;1442;47.448;8.582;2024-03-02T12:09:24;8.10;;;5.10;;
2868;SDS011;1442;47.448;8.582;2024-03-02T12:12:00;6.25;;;4.55;;
2868;SDS011;1442;47.448;8.582;2024-03-02T12:14:30;6.35;;;4.57;;
2868;SDS011;1442;47.448;8.582;2024-03-02T12:16:58;5.63;;;4.40;;
2868;SDS011;1442;47.448;8.582;2024-03-02T12:19:25;5.40;;;4.20;;
2868;SDS011;1442;47.448;8.582;2024-03-02T12:21:52;6.22;;;3.60;;
2868;SDS011;1442;47.448;8.582;2024-03-02T12:24:19;4.25;;;3.45;;
2868;SDS011;1442;47.448;8.582;2024-03-02T12:26:47;3.75;;;2.88;;
2868;SDS011;1442;47.448;8.582;2024-03-02T12:29:14;4.05;;;3.10;;
2868;SDS011;1442;47.448;8.582;2024-03-02T12:31:43;4.00;;;3.08;;
2868;SDS011;1442;47.448;8.582;2024-03-02T12:34:11;3.72;;;3.00;;
2868;SDS011;1442;47.448;8.582;2024-03-02T12:36:39;3.72;;;2.70;;
2868;SDS011;1442;47.448;8.582;2024-03-02T12:39:06;6.38;;;3.70;;
2868;SDS011;1442;47.448;8.582;2024-03-02T12:41:35;3.58;;;2.70;;
2868;SDS011;1442;47.448;8.582;2024-03-02T12:44:03;4.68;;;2.97;;
2868;SDS011;1442;47.448;8.582;2024-03-02T12:46:30;3.90;;;2.75;;
2868;SDS011;1442;47.448;8.582;2024-03-02T12:48:58;8.77;;;4.38;;
2868;SDS011;1442;47.448;8.582;2024-03-02T12:51:31;3.60;;;2.72;;
2868;SDS011;1442;47.448;8.582;2024-03-02T12:53:57;4.10;;;2.80;;
2868;SDS011;1442;47.448;8.582;2024-03-02T12:56:24;5.18;;;3.10;;
2868;SDS011;1442;47.448;8.582;2024-03-02T12:58:52;3.30;;;2.90;;
2868;SDS011;1442;47.448;8.582;2024-03-02T13:01:20;3.88;;;2.78;;
2868;SDS011;1442;47.448;8.582;2024-03-02T13:03:48;4.18;;;3.30;;
2868;SDS011;1442;47.448;8.582;2024-03-02T13:06:17;4.03;;;2.88;;
2868;SDS011;1442;47.448;8.582;2024-03-02T13:08:45;5.70;;;3.38;;
2868;SDS011;1442;47.448;8.582;2024-03-02T13:11:12;4.75;;;3.38;;
2868;SDS011;1442;47.448;8.582;2024-03-02T13:13:39;5.00;;;3.70;;
2868;SDS011;1442;47.448;8.582;2024-03-02T13:16:08;4.32;;;3.20;;
2868;SDS011;1442;47.448;8.582;2024-03-02T13:18:35;6.10;;;3.97;;
2868;SDS011;1442;47.448;8.582;2024-03-02T13:21:03;5.32;;;4.00;;
2868;SDS011;1442;47.448;8.582;2024-03-02T13:23:31;5.55;;;3.65;;
2868;SDS011;1442;47.448;8.582;2024-03-02T13:25:58;7.05;;;4.00;;
2868;SDS011;1442;47.448;8.582;2024-03-02T13:28:25;4.82;;;3.67;;
2868;SDS011;1442;47.448;8.582;2024-03-02T13:30:51;4.38;;;3.63;;
2868;SDS011;1442;47.448;8.582;2024-03-02T13:33:18;5.55;;;4.18;;
2868;SDS011;1442;47.448;8.582;2024-03-02T13:35:47;6.15;;;4.20;;
2868;SDS011;1442;47.448;8.582;2024-03-02T13:38:14;5.18;;;4.28;;
2868;SDS011;1442;47.448;8.582;2024-03-02T13:40:43;5.95;;;4.13;;
2868;SDS011;1442;47.448;8.582;2024-03-02T13:43:09;5.78;;;4.07;;
2868;SDS011;1442;47.448;8.582;2024-03-02T13:45:36;4.63;;;3.90;;
2868;SDS011;1442;47.448;8.582;2024-03-02T13:48:03;4.25;;;3.40;;
2868;SDS011;1442;47.448;8.582;2024-03-02T13:50:31;4.32;;;3.22;;
2868;SDS011;1442;47.448;8.582;2024-03-02T13:52:58;4.68;;;3.90;;
2868;SDS011;1442;47.448;8.582;2024-03-02T13:55:25;4.90;;;3.65;;
2868;SDS011;1442;47.448;8.582;2024-03-02T13:57:53;5.53;;;3.95;;
2868;SDS011;1442;47.448;8.582;2024-03-02T14:00:20;4.45;;;3.72;;
2868;SDS011;1442;47.448;8.582;2024-03-02T14:02:47;4.78;;;3.25;;
2868;SDS011;1442;47.448;8.582;2024-03-02T14:05:15;9.15;;;3.60;;
2868;SDS011;1442;47.448;8.582;2024-03-02T14:07:42;6.07;;;3.45;;
2868;SDS011;1442;47.448;8.582;2024-03-02T14:10:09;5.43;;;2.97;;
2868;SDS011;1442;47.448;8.582;2024-03-02T14:12:36;4.00;;;2.90;;
2868;SDS011;1442;47.448;8.582;2024-03-02T14:15:05;4.50;;;3.25;;
2868;SDS011;1442;47.448;8.582;2024-03-02T14:17:32;4.55;;;3.20;;
2868;SDS011;1442;47.448;8.582;2024-03-02T14:20:00;3.55;;;2.75;;
2868;SDS011;1442;47.448;8.582;2024-03-02T14:22:27;5.00;;;2.90;;
2868;SDS011;1442;47.448;8.582;2024-03-02T14:24:53;4.07;;;2.88;;
2868;SDS011;1442;47.448;8.582;2024-03-02T14:27:20;3.78;;;2.67;;
2868;SDS011;1442;47.448;8.582;2024-03-02T14:29:47;4.07;;;3.13;;
2868;SDS011;1442;47.448;8.582;2024-03-02T14:32:15;3.63;;;2.83;;
2868;SDS011;1442;47.448;8.582;2024-03-02T14:34:42;3.13;;;2.28;;
2868;SDS011;1442;47.448;8.582;2024-03-02T14:37:11;3.65;;;2.78;;
2868;SDS011;1442;47.448;8.582;2024-03-02T14:39:38;4.47;;;2.78;;
2868;SDS011;1442;47.448;8.582;2024-03-02T14:42:05;4.72;;;2.70;;
2868;SDS011;1442;47.448;8.582;2024-03-02T14:44:32;4.70;;;2.88;;
2868;SDS011;1442;47.448;8.582;2024-03-02T14:47:00;5.82;;;2.30;;
2868;SDS011;1442;47.448;8.582;2024-03-02T14:49:29;4.05;;;2.83;;
2868;SDS011;1442;47.448;8.582;2024-03-02T14:51:58;3.80;;;2.10;;
2868;SDS011;1442;47.448;8.582;2024-03-02T14:54:25;2.38;;;2.17;;
2868;SDS011;1442;47.448;8.582;2024-03-02T14:56:52;2.05;;;1.90;;
2868;SDS011;1442;47.448;8.582;2024-03-02T14:59:19;2.80;;;1.73;;
2868;SDS011;1442;47.448;8.582;2024-03-02T15:01:45;2.80;;;1.70;;